Time;durP1;ratioP1;P1;durP2;ratioP2;P2;SDS_P1;SDS_P2;PMS_P1;PMS_P2;Temp;Humidity;BMP_temperature;BMP_pressure;BME280_temperature;BME280_humidity;BME280_pressure;Samples;Min_cycle;Max_cycle;Signal;HPM_P1;HPM_P2
2020/12/10 00:00:15;;;;;;;6.45;2.45;;;9.20;79.30;;;;;;5028989;28;20220;-73
2020/12/10 00:02:41;;;;;;;5.03;2.13;;;9.10;79.20;;;;;;5029065;28;20121;-72
2020/12/10 00:05:09;;;;;;;4.47;2.47;;;9.10;79.20;;;;;;5028011;28;20031;-73
2020/12/10 00:07:35;;;;;;;4.63;1.90;;;9.10;79.20;;;;;;5011095;28;20060;-72
2020/12/10 00:10:04;;;;;;;2.67;2.08;;;9.10;79.20;;;;;;5027539;28;20067;-72
2020/12/10 00:12:30;;;;;;;4.90;2.10;;;9.10;79.20;;;;;;5027503;28;20117;-73
2020/12/10 00:14:56;;;;;;;5.53;2.42;;;9.10;79.20;;;;;;5028013;28;20064;-73
2020/12/10 00:17:24;;;;;;;5.75;2.03;;;9.10;79.20;;;;;;5027554;28;20033;-72
2020/12/10 00:19:50;;;;;;;2.35;1.83;;;9.10;79.20;;;;;;5028493;28;20051;-72
2020/12/10 00:22:16;;;;;;;3.80;1.85;;;9.10;79.20;;;;;;5028671;28;20532;-73
2020/12/10 00:24:43;;;;;;;6.45;2.88;;;9.10;79.20;;;;;;5028424;28;20025;-72
2020/12/10 00:27:09;;;;;;;3.10;2.00;;;9.10;79.20;;;;;;5029005;28;20147;-73
2020/12/10 00:29:35;;;;;;;4.97;2.45;;;9.10;79.20;;;;;;5027372;28;20068;-72
2020/12/10 00:32:00;;;;;;;4.63;2.25;;;9.10;79.20;;;;;;5028584;28;20450;-72
2020/12/10 00:34:26;;;;;;;6.07;2.30;;;9.10;79.20;;;;;;5026870;28;20096;-72
2020/12/10 00:36:53;;;;;;;3.28;2.17;;;9.10;79.20;;;;;;5028450;28;20030;-72
2020/12/10 00:39:18;;;;;;;4.95;2.22;;;9.10;79.20;;;;;;5028392;28;20653;-73
2020/12/10 00:41:44;;;;;;;6.43;2.33;;;9.10;79.20;;;;;;5027301;28;20033;-72
2020/12/10 00:44:10;;;;;;;5.07;2.25;;;9.10;79.20;;;;;;5028127;28;20037;-72
2020/12/10 00:46:39;;;;;;;5.32;2.45;;;9.10;79.20;;;;;;5028368;28;20045;-71
2020/12/10 00:49:06;;;;;;;3.65;2.40;;;9.10;79.20;;;;;;5025989;28;20041;-72
2020/12/10 00:51:32;;;;;;;3.40;1.88;;;9.10;79.20;;;;;;5010214;28;20116;-72
2020/12/10 00:53:58;;;;;;;3.75;2.28;;;9.10;79.10;;;;;;5026794;28;20109;-72
2020/12/10 00:56:24;;;;;;;4.68;2.55;;;9.10;79.10;;;;;;5026793;28;20029;-73
2020/12/10 00:58:50;;;;;;;6.63;2.10;;;9.10;79.10;;;;;;5027807;28;20390;-72
2020/12/10 01:01:16;;;;;;;3.72;2.13;;;9.10;79.10;;;;;;5026907;28;20663;-72
2020/12/10 01:03:42;;;;;;;6.18;2.67;;;9.10;79.10;;;;;;5009934;28;20125;-72
2020/12/10 01:06:12;;;;;;;3.28;1.95;;;9.10;79.10;;;;;;5028339;28;20069;-72
2020/12/10 01:08:38;;;;;;;6.13;2.55;;;9.10;79.10;;;;;;5027679;28;20132;-72
2020/12/10 01:11:04;;;;;;;2.45;2.08;;;9.10;79.10;;;;;;5027834;28;20121;-72
2020/12/10 01:13:30;;;;;;;5.97;2.47;;;9.10;79.10;;;;;;5027902;28;20148;-72
2020/12/10 01:15:56;;;;;;;4.85;2.25;;;9.00;79.40;;;;;;5027628;28;20579;-72
2020/12/10 01:18:21;;;;;;;4.45;2.15;;;9.00;78.90;;;;;;5026063;28;20037;-71
2020/12/10 01:20:47;;;;;;;4.38;2.30;;;9.00;78.90;;;;;;5027918;28;20071;-73
2020/12/10 01:23:13;;;;;;;2.13;1.73;;;9.00;78.90;;;;;;5026137;28;20555;-73
2020/12/10 01:25:39;;;;;;;5.47;1.85;;;9.00;78.90;;;;;;5026744;28;20112;-72
2020/12/10 01:28:05;;;;;;;3.83;1.88;;;9.10;79.20;;;;;;5027299;28;20132;-72
2020/12/10 01:30:31;;;;;;;3.58;1.88;;;9.00;79.40;;;;;;5026210;28;20030;-72
2020/12/10 01:32:57;;;;;;;2.85;1.83;;;9.00;79.40;;;;;;5027833;28;20095;-72
2020/12/10 01:35:23;;;;;;;2.53;2.20;;;9.00;78.90;;;;;;5025825;28;20037;-73
2020/12/10 01:37:49;;;;;;;2.22;1.80;;;9.00;78.90;;;;;;5009246;28;20074;-72
2020/12/10 01:40:15;;;;;;;2.67;1.83;;;9.00;78.90;;;;;;5025660;28;20080;-72
2020/12/10 01:42:41;;;;;;;4.47;2.33;;;9.00;78.90;;;;;;5027180;28;20033;-72
2020/12/10 01:45:07;;;;;;;3.42;2.05;;;9.00;78.90;;;;;;5027316;28;20086;-72
2020/12/10 01:47:34;;;;;;;3.17;2.08;;;9.00;78.90;;;;;;5025285;28;20084;-73
2020/12/10 01:50:00;;;;;;;3.13;1.85;;;9.00;78.90;;;;;;5027036;28;20552;-72
2020/12/10 01:52:26;;;;;;;3.63;1.90;;;9.00;78.90;;;;;;5025977;28;20030;-73
2020/12/10 01:54:52;;;;;;;2.28;1.60;;;9.00;78.90;;;;;;5025790;28;20546;-73
2020/12/10 01:57:18;;;;;;;5.18;1.98;;;9.00;78.90;;;;;;5027124;28;20029;-72
2020/12/10 01:59:46;;;;;;;2.58;1.92;;;9.00;78.90;;;;;;5026553;28;20333;-72
2020/12/10 02:02:14;;;;;;;3.60;1.55;;;9.00;78.90;;;;;;5027365;28;20083;-72
2020/12/10 02:04:39;;;;;;;3.65;2.13;;;9.00;78.90;;;;;;5026874;28;20037;-72
2020/12/10 02:07:06;;;;;;;3.35;2.13;;;9.00;78.90;;;;;;5026964;28;20040;-72
2020/12/10 02:09:33;;;;;;;3.55;2.08;;;8.90;78.70;;;;;;5025856;28;20036;-72
2020/12/10 02:11:59;;;;;;;1.88;1.75;;;9.00;78.90;;;;;;5025361;28;20030;-71
2020/12/10 02:14:34;;;;;;;3.83;2.10;;;8.90;78.70;;;;;;5024863;28;20503;-71
2020/12/10 02:17:02;;;;;;;2.67;1.77;;;9.00;78.90;;;;;;5025188;28;20053;-72
2020/12/10 02:19:28;;;;;;;2.38;1.77;;;8.90;78.70;;;;;;5026780;28;20030;-71
2020/12/10 02:21:55;;;;;;;6.20;1.98;;;9.00;78.90;;;;;;5027385;28;20041;-72
2020/12/10 02:24:21;;;;;;;2.70;1.65;;;9.00;78.90;;;;;;5026528;28;20499;-72
2020/12/10 02:26:47;;;;;;;3.38;1.90;;;9.00;78.90;;;;;;5025002;28;20052;-72
2020/12/10 02:29:16;;;;;;;3.15;2.10;;;9.00;78.90;;;;;;5025151;28;20021;-72
2020/12/10 02:31:43;;;;;;;3.33;1.58;;;9.00;78.90;;;;;;5025397;28;20124;-72
2020/12/10 02:34:10;;;;;;;4.90;1.90;;;8.90;78.70;;;;;;5025424;28;20029;-72
2020/12/10 02:36:37;;;;;;;2.75;1.73;;;8.90;78.70;;;;;;5026026;28;20032;-70
2020/12/10 02:39:05;;;;;;;2.80;1.73;;;9.00;78.90;;;;;;5024942;28;20029;-73
2020/12/10 02:41:32;;;;;;;2.33;1.70;;;9.00;78.90;;;;;;5009171;28;20119;-73
2020/12/10 02:43:58;;;;;;;6.10;2.15;;;9.00;78.90;;;;;;5025076;28;20109;-72
2020/12/10 02:46:23;;;;;;;2.85;1.90;;;9.00;78.90;;;;;;5009564;28;20136;-72
2020/12/10 02:48:49;;;;;;;3.35;2.00;;;9.00;78.90;;;;;;5026784;28;20053;-73
2020/12/10 02:51:15;;;;;;;3.65;1.98;;;9.00;79.40;;;;;;5028350;28;20034;-72
2020/12/10 02:53:41;;;;;;;7.88;1.73;;;9.00;79.30;;;;;;5029601;28;20342;-74
2020/12/10 02:56:11;;;;;;;3.00;1.70;;;9.00;78.80;;;;;;5029372;28;20116;-73
2020/12/10 02:58:38;;;;;;;2.70;2.17;;;9.00;78.80;;;;;;5028222;28;20037;-73
2020/12/10 03:01:05;;;;;;;6.40;1.75;;;9.00;78.80;;;;;;5029601;28;20392;-73
2020/12/10 03:03:31;;;;;;;3.17;1.95;;;9.00;78.80;;;;;;5029558;28;20033;-72
2020/12/10 03:05:57;;;;;;;3.13;1.58;;;9.00;78.80;;;;;;5027646;28;20028;-72
2020/12/10 03:08:23;;;;;;;2.00;1.40;;;9.00;78.80;;;;;;5012102;28;20045;-74
2020/12/10 03:10:50;;;;;;;5.05;2.20;;;9.00;78.80;;;;;;5010010;28;20033;-73
2020/12/10 03:13:16;;;;;;;2.55;1.98;;;9.00;78.80;;;;;;4995554;28;20040;-73
2020/12/10 03:15:43;;;;;;;3.30;1.67;;;9.00;78.80;;;;;;5028014;28;20025;-74
2020/12/10 03:18:09;;;;;;;1.90;1.40;;;9.00;78.80;;;;;;5027467;28;20038;-73
2020/12/10 03:20:35;;;;;;;1.60;1.50;;;9.00;78.80;;;;;;5027903;28;20036;-74
2020/12/10 03:23:01;;;;;;;2.10;1.58;;;9.00;78.80;;;;;;5027463;28;20539;-73
2020/12/10 03:25:27;;;;;;;2.72;1.60;;;9.00;78.80;;;;;;5029097;28;20033;-73
2020/12/10 03:27:54;;;;;;;3.03;1.92;;;9.00;78.80;;;;;;5029287;28;20081;-72
2020/12/10 03:30:21;;;;;;;2.38;1.75;;;9.00;78.80;;;;;;5029253;28;20030;-72
2020/12/10 03:32:48;;;;;;;1.77;1.50;;;9.00;78.80;;;;;;5027652;28;20539;-73
2020/12/10 03:35:14;;;;;;;2.67;1.55;;;9.00;78.80;;;;;;5027787;28;20063;-73
2020/12/10 03:37:40;;;;;;;2.83;1.98;;;8.90;78.60;;;;;;5029036;28;20029;-72
2020/12/10 03:40:06;;;;;;;2.70;1.67;;;9.00;78.80;;;;;;5029165;28;20052;-73
2020/12/10 03:42:31;;;;;;;2.30;1.67;;;9.00;78.80;;;;;;5029408;28;20044;-72
2020/12/10 03:44:58;;;;;;;2.67;1.65;;;9.00;78.80;;;;;;5027595;28;20026;-73
2020/12/10 03:47:23;;;;;;;2.65;1.80;;;9.00;78.80;;;;;;5028681;28;20045;-73
2020/12/10 03:49:50;;;;;;;4.10;1.77;;;9.00;78.80;;;;;;5028932;28;20452;-72
2020/12/10 03:52:18;;;;;;;4.70;1.75;;;9.00;78.80;;;;;;5027455;28;20634;-72
2020/12/10 03:54:44;;;;;;;1.27;1.17;;;9.00;78.80;;;;;;5028004;28;20060;-72
2020/12/10 03:57:10;;;;;;;3.40;1.83;;;9.00;78.70;;;;;;5029008;28;20026;-72
2020/12/10 03:59:36;;;;;;;1.50;1.40;;;9.00;78.70;;;;;;5030030;28;20052;-71
2020/12/10 04:02:02;;;;;;;1.80;1.50;;;9.00;78.70;;;;;;5032596;28;20056;-72
2020/12/10 04:04:28;;;;;;;3.70;2.05;;;9.00;78.70;;;;;;5032464;28;20033;-72
2020/12/10 04:06:54;;;;;;;2.38;1.52;;;9.00;78.70;;;;;;5031063;28;20044;-72
2020/12/10 04:09:20;;;;;;;5.13;1.80;;;9.00;78.70;;;;;;5014491;28;20377;-71
2020/12/10 04:11:46;;;;;;;2.25;1.48;;;9.00;78.70;;;;;;5032131;28;20025;-72
2020/12/10 04:14:12;;;;;;;2.70;1.70;;;9.00;78.70;;;;;;5032322;28;20036;-72
2020/12/10 04:16:39;;;;;;;3.45;1.70;;;9.00;78.70;;;;;;5030749;28;20397;-74
2020/12/10 04:19:05;;;;;;;2.50;1.48;;;9.00;78.70;;;;;;5030756;28;20079;-73
2020/12/10 04:21:31;;;;;;;1.85;1.55;;;9.00;78.70;;;;;;5032189;28;20034;-72
2020/12/10 04:23:57;;;;;;;2.05;1.55;;;9.00;78.70;;;;;;5030565;28;20035;-72
2020/12/10 04:26:23;;;;;;;6.32;1.80;;;9.00;78.70;;;;;;5030809;28;20033;-73
2020/12/10 04:28:49;;;;;;;1.70;1.40;;;9.00;78.70;;;;;;5014148;28;20127;-72
2020/12/10 04:31:17;;;;;;;2.50;1.80;;;9.00;78.70;;;;;;5014345;28;20361;-73
2020/12/10 04:33:43;;;;;;;3.42;1.52;;;9.00;78.70;;;;;;5032029;28;20120;-73
2020/12/10 04:36:09;;;;;;;2.35;1.48;;;9.00;78.70;;;;;;5031386;28;20228;-73
2020/12/10 04:38:35;;;;;;;3.17;2.08;;;9.00;78.70;;;;;;5031942;28;20033;-72
2020/12/10 04:41:03;;;;;;;2.78;1.60;;;9.00;78.70;;;;;;5030658;28;20026;-72
2020/12/10 04:43:29;;;;;;;3.33;1.90;;;9.00;78.70;;;;;;5031950;28;20048;-72
2020/12/10 04:46:00;;;;;;;2.70;1.65;;;9.00;78.70;;;;;;5030120;28;20026;-70
2020/12/10 04:48:28;;;;;;;1.52;1.42;;;9.00;78.70;;;;;;5029898;28;20037;-73
2020/12/10 04:51:00;;;;;;;1.75;1.60;;;9.00;78.70;;;;;;5030021;28;20089;-72
2020/12/10 04:53:27;;;;;;;1.80;1.40;;;9.00;78.70;;;;;;5032134;28;20448;-73
2020/12/10 04:55:56;;;;;;;4.32;1.92;;;9.10;78.80;;;;;;5029995;28;20026;-72
2020/12/10 04:58:21;;;;;;;3.30;1.77;;;9.10;78.90;;;;;;5030120;28;20107;-72
2020/12/10 05:00:55;;;;;;;1.95;1.60;;;9.10;78.80;;;;;;5030166;28;20524;-72
2020/12/10 05:03:23;;;;;;;2.67;1.60;;;9.00;78.60;;;;;;5030190;28;20040;-72
2020/12/10 05:05:49;;;;;;;2.10;1.52;;;9.10;78.80;;;;;;5030166;28;20025;-71
2020/12/10 05:08:28;;;;;;;3.63;2.47;;;9.10;78.80;;;;;;5029585;28;20124;-72
2020/12/10 05:10:55;;;;;;;3.17;1.60;;;9.10;78.80;;;;;;5011587;28;20023;-73
2020/12/10 05:13:20;;;;;;;1.85;1.73;;;9.00;78.60;;;;;;5028733;28;20052;-72
2020/12/10 05:15:47;;;;;;;1.63;1.52;;;9.10;78.80;;;;;;5029835;28;20036;-72
2020/12/10 05:18:15;;;;;;;3.35;1.83;;;9.10;78.80;;;;;;5027768;28;20404;-72
2020/12/10 05:20:50;;;;;;;2.30;1.88;;;9.10;78.70;;;;;;5026901;28;20544;-71
2020/12/10 05:23:31;;;;;;;3.63;2.05;;;9.10;78.70;;;;;;5029091;28;20113;-73
2020/12/10 05:26:04;;;;;;;1.55;1.40;;;9.10;78.80;;;;;;5029501;28;20172;-71
2020/12/10 05:28:50;;;;;;;3.38;1.85;;;9.10;78.70;;;;;;5028890;28;20116;-71
2020/12/10 05:31:21;;;;;;;1.92;1.48;;;9.00;78.50;;;;;;5028849;28;20120;-72
2020/12/10 05:33:56;;;;;;;2.00;1.60;;;9.10;78.70;;;;;;5027215;28;20084;-72
2020/12/10 05:36:24;;;;;;;2.83;1.45;;;9.10;78.70;;;;;;5026644;28;20112;-71
2020/12/10 05:39:04;;;;;;;1.65;1.55;;;9.10;78.70;;;;;;5010910;28;20527;-71
2020/12/10 05:41:34;;;;;;;3.28;1.83;;;9.10;78.70;;;;;;5028313;28;20237;-71
2020/12/10 05:44:20;;;;;;;2.25;1.50;;;9.10;78.70;;;;;;5027505;28;20099;-72
2020/12/10 05:46:48;;;;;;;5.07;2.13;;;9.10;78.70;;;;;;5030483;28;20168;-72
2020/12/10 05:49:15;;;;;;;3.40;1.52;;;9.10;78.70;;;;;;5007532;28;20369;-72
2020/12/10 05:51:49;;;;;;;3.58;1.73;;;9.10;78.70;;;;;;5026201;28;20438;-72
2020/12/10 05:54:16;;;;;;;2.47;2.00;;;9.10;78.70;;;;;;5026981;28;20030;-72
2020/12/10 05:56:58;;;;;;;1.98;1.80;;;9.10;78.70;;;;;;5026924;28;20060;-72
2020/12/10 05:59:26;;;;;;;6.50;2.00;;;9.10;78.80;;;;;;5025639;28;20032;-71
2020/12/10 06:02:03;;;;;;;2.05;1.70;;;9.10;78.70;;;;;;5025413;28;20033;-71
2020/12/10 06:04:29;;;;;;;2.13;1.83;;;9.10;78.70;;;;;;5027087;28;20532;-71
2020/12/10 06:06:59;;;;;;;2.00;1.75;;;9.10;78.70;;;;;;5009096;28;20133;-71
2020/12/10 06:09:26;;;;;;;3.22;1.50;;;9.10;78.70;;;;;;5024894;28;20075;-72
2020/12/10 06:12:02;;;;;;;2.53;1.83;;;9.10;78.70;;;;;;5008813;28;20120;-72
2020/12/10 06:14:29;;;;;;;1.90;1.70;;;9.20;78.90;;;;;;5025201;28;20119;-73
2020/12/10 06:17:10;;;;;;;3.67;2.03;;;9.10;78.70;;;;;;5026321;28;20512;-72
2020/12/10 06:19:37;;;;;;;2.00;1.40;;;9.20;78.90;;;;;;5024931;28;20025;-72
2020/12/10 06:22:22;;;;;;;3.08;1.88;;;9.20;78.90;;;;;;5025131;28;20117;-73
2020/12/10 06:24:49;;;;;;;1.60;1.50;;;9.20;78.90;;;;;;5025605;28;20117;-73
2020/12/10 06:27:29;;;;;;;2.95;2.00;;;9.20;78.90;;;;;;5024026;28;20033;-73
2020/12/10 06:30:21;;;;;;;3.00;1.83;;;9.20;78.90;;;;;;5023853;28;20151;-73
2020/12/10 06:32:51;;;;;;;4.07;2.13;;;9.20;78.90;;;;;;5023146;28;20564;-72
2020/12/10 06:35:26;;;;;;;2.13;1.90;;;9.20;78.80;;;;;;5024438;28;20037;-73
2020/12/10 06:37:53;;;;;;;5.85;2.10;;;9.20;78.90;;;;;;5024922;28;20044;-72
2020/12/10 06:40:29;;;;;;;2.90;2.30;;;9.30;79.20;;;;;;5024940;28;20124;-72
2020/12/10 06:42:55;;;;;;;4.20;2.05;;;9.20;79.10;;;;;;5024758;28;20028;-72
2020/12/10 06:45:31;;;;;;;10.30;2.70;;;9.30;79.20;;;;;;5008138;28;20191;-71
2020/12/10 06:47:57;;;;;;;2.15;1.73;;;9.30;79.20;;;;;;5024312;28;20046;-73
2020/12/10 06:50:28;;;;;;;3.03;2.10;;;9.30;79.10;;;;;;5024915;28;20041;-74
2020/12/10 06:53:12;;;;;;;6.55;2.33;;;9.30;79.10;;;;;;5026223;28;20035;-72
2020/12/10 06:56:01;;;;;;;5.68;2.08;;;9.30;79.10;;;;;;5021498;28;20077;-71
2020/12/10 06:58:38;;;;;;;3.30;2.17;;;9.30;79.10;;;;;;5032090;28;20134;-72
2020/12/10 07:01:21;;;;;;;2.78;1.95;;;9.30;79.10;;;;;;5004840;28;20438;-72
2020/12/10 07:03:48;;;;;;;2.33;1.92;;;9.30;79.20;;;;;;5023243;28;20049;-72
2020/12/10 07:06:18;;;;;;;4.03;2.17;;;9.30;79.10;;;;;;5024969;28;20345;-74
2020/12/10 07:09:05;;;;;;;2.75;1.92;;;9.30;79.10;;;;;;5023680;28;20042;-72
2020/12/10 07:11:36;;;;;;;3.42;1.77;;;9.30;79.20;;;;;;5023634;28;20095;-73
2020/12/10 07:14:22;;;;;;;2.30;2.10;;;9.30;79.20;;;;;;5024115;28;20076;-72
2020/12/10 07:16:49;;;;;;;2.05;1.85;;;9.30;79.20;;;;;;5024995;28;20527;-71
2020/12/10 07:19:15;;;;;;;3.53;2.22;;;9.30;79.20;;;;;;5023822;28;20029;-72
2020/12/10 07:21:42;;;;;;;2.35;1.48;;;9.30;79.30;;;;;;5026083;28;20465;-72
2020/12/10 07:24:08;;;;;;;2.42;1.75;;;9.30;79.20;;;;;;5025727;28;20124;-72
2020/12/10 07:26:35;;;;;;;3.83;1.67;;;9.30;79.30;;;;;;5007788;28;20445;-72
2020/12/10 07:29:01;;;;;;;2.78;1.40;;;9.30;79.30;;;;;;5022630;28;20065;-72
2020/12/10 07:31:27;;;;;;;2.10;1.80;;;9.20;79.10;;;;;;5022634;28;20053;-73
2020/12/10 07:33:57;;;;;;;2.28;1.80;;;9.20;79.60;;;;;;5025440;28;20029;-72
2020/12/10 07:36:24;;;;;;;3.47;1.50;;;9.20;79.10;;;;;;5011596;28;20572;-73
2020/12/10 07:38:50;;;;;;;3.35;2.13;;;9.20;79.10;;;;;;5011383;28;20519;-74
2020/12/10 07:41:16;;;;;;;3.33;1.63;;;9.20;79.20;;;;;;5028997;28;20030;-73
2020/12/10 07:43:50;;;;;;;3.00;1.80;;;9.30;79.30;;;;;;5027589;28;20203;-73
2020/12/10 07:46:17;;;;;;;3.55;1.70;;;9.30;79.30;;;;;;5029316;28;20053;-74
2020/12/10 07:48:46;;;;;;;2.13;1.77;;;9.20;79.10;;;;;;5029382;28;20432;-73
2020/12/10 07:51:20;;;;;;;1.73;1.55;;;9.20;79.10;;;;;;5027579;28;20064;-74
2020/12/10 07:53:47;;;;;;;1.88;1.50;;;9.20;79.10;;;;;;5011838;28;20128;-73
2020/12/10 07:56:22;;;;;;;2.55;1.83;;;9.20;79.10;;;;;;5028852;28;20083;-73
2020/12/10 07:59:00;;;;;;;3.83;1.90;;;9.20;79.10;;;;;;5028986;28;20076;-72
2020/12/10 08:01:41;;;;;;;2.40;1.73;;;9.20;79.10;;;;;;5027728;28;20049;-72
2020/12/10 08:04:16;;;;;;;2.42;2.22;;;9.20;79.10;;;;;;4996194;28;20082;-73
2020/12/10 08:06:45;;;;;;;1.85;1.70;;;9.20;79.10;;;;;;5011954;28;20072;-72
2020/12/10 08:09:13;;;;;;;4.05;2.08;;;9.20;79.10;;;;;;5027068;28;20045;-73
2020/12/10 08:11:51;;;;;;;2.55;1.80;;;9.20;79.10;;;;;;5029115;28;20089;-73
2020/12/10 08:14:32;;;;;;;2.08;1.88;;;9.20;79.10;;;;;;5024827;28;20052;-73
2020/12/10 08:17:00;;;;;;;1.90;1.70;;;9.20;79.10;;;;;;5022722;28;20393;-73
2020/12/10 08:19:32;;;;;;;1.88;1.73;;;9.20;79.00;;;;;;5028579;28;20033;-74
2020/12/10 08:21:58;;;;;;;2.97;1.63;;;9.20;79.60;;;;;;5011743;28;20021;-72
2020/12/10 08:24:44;;;;;;;2.63;1.98;;;9.10;78.90;;;;;;5042304;28;20135;-72
2020/12/10 08:27:11;;;;;;;1.73;1.63;;;9.20;79.10;;;;;;5027718;28;20224;-71
2020/12/10 08:29:38;;;;;;;2.38;2.05;;;9.20;79.10;;;;;;5028365;28;20562;-71
2020/12/10 08:32:14;;;;;;;1.77;1.67;;;9.20;79.10;;;;;;5027526;28;20026;-73
2020/12/10 08:34:41;;;;;;;3.65;1.73;;;9.20;79.10;;;;;;5028347;28;20097;-72
2020/12/10 08:37:10;;;;;;;2.47;1.88;;;9.20;79.10;;;;;;5010679;28;20037;-72
2020/12/10 08:39:38;;;;;;;2.10;1.70;;;9.20;79.10;;;;;;5028536;28;20037;-73
2020/12/10 08:42:04;;;;;;;4.00;2.03;;;9.20;79.10;;;;;;5028809;28;20029;-72
2020/12/10 08:44:47;;;;;;;3.25;1.63;;;9.20;79.10;;;;;;5027192;28;20037;-72
2020/12/10 08:47:13;;;;;;;2.85;1.63;;;9.20;79.10;;;;;;5026819;28;20564;-72
2020/12/10 08:49:39;;;;;;;2.63;2.00;;;9.20;79.10;;;;;;5028296;28;20118;-74
2020/12/10 08:52:05;;;;;;;2.53;1.55;;;9.10;78.90;;;;;;5027028;28;20060;-74
2020/12/10 08:54:46;;;;;;;4.70;1.90;;;9.20;79.10;;;;;;5027831;28;20040;-75
2020/12/10 08:57:12;;;;;;;2.92;2.10;;;9.10;78.90;;;;;;5028184;28;20041;-74
2020/12/10 08:59:39;;;;;;;1.73;1.48;;;9.20;79.10;;;;;;5028120;28;20030;-74
2020/12/10 09:02:05;;;;;;;1.92;1.60;;;9.20;79.10;;;;;;5027824;28;20542;-75
2020/12/10 09:04:31;;;;;;;3.17;1.98;;;9.10;78.90;;;;;;5009671;28;20041;-72
2020/12/10 09:06:57;;;;;;;1.80;1.65;;;9.10;78.90;;;;;;5028385;28;20052;-72
2020/12/10 09:09:23;;;;;;;2.00;1.58;;;9.10;79.00;;;;;;5026207;28;20142;-73
2020/12/10 09:11:49;;;;;;;2.75;2.10;;;9.20;79.30;;;;;;5009810;28;20064;-73
2020/12/10 09:14:18;;;;;;;2.60;2.00;;;9.20;79.30;;;;;;5025982;28;20124;-73
2020/12/10 09:16:59;;;;;;;3.05;2.40;;;9.20;79.30;;;;;;5026508;28;20044;-72
2020/12/10 09:19:25;;;;;;;2.08;1.80;;;9.20;79.40;;;;;;5026632;28;20566;-73
2020/12/10 09:21:51;;;;;;;2.92;2.20;;;9.30;79.50;;;;;;5027500;28;20040;-73
2020/12/10 09:24:17;;;;;;;3.03;2.00;;;9.30;79.50;;;;;;4993235;28;20039;-74
2020/12/10 09:26:43;;;;;;;5.68;2.30;;;9.30;79.50;;;;;;5027312;28;20109;-72
2020/12/10 09:29:11;;;;;;;2.38;2.00;;;9.30;79.50;;;;;;5026161;28;20064;-74
2020/12/10 09:31:37;;;;;;;2.55;2.35;;;9.30;79.50;;;;;;5026123;28;20045;-74
2020/12/10 09:34:03;;;;;;;2.70;1.85;;;9.30;79.50;;;;;;5027240;28;20137;-75
2020/12/10 09:36:31;;;;;;;2.33;1.88;;;9.30;79.50;;;;;;5005941;28;20620;-73
2020/12/10 09:38:57;;;;;;;2.08;1.85;;;9.40;79.70;;;;;;5018267;28;20116;-75
2020/12/10 09:41:24;;;;;;;4.20;1.80;;;9.30;79.50;;;;;;5027428;28;20124;-73
2020/12/10 09:43:50;;;;;;;2.00;1.80;;;9.40;79.70;;;;;;5009964;28;20140;-72
2020/12/10 09:46:16;;;;;;;2.72;1.90;;;9.40;79.70;;;;;;5025410;28;20067;-72
2020/12/10 09:48:41;;;;;;;2.97;1.90;;;9.40;79.70;;;;;;5026829;28;20053;-72
2020/12/10 09:51:08;;;;;;;2.92;2.20;;;9.40;79.70;;;;;;5022134;28;20465;-72
2020/12/10 09:53:48;;;;;;;2.17;1.98;;;9.40;79.60;;;;;;5024278;28;20035;-72
2020/12/10 09:58:44;;;;;;;2.13;1.83;;;9.50;79.80;;;;;;5027028;28;20038;-72
2020/12/10 10:01:11;;;;;;;3.90;2.13;;;9.50;79.70;;;;;;5009144;28;20164;-73
2020/12/10 10:03:38;;;;;;;3.28;2.08;;;9.50;79.70;;;;;;5026875;28;20112;-72
2020/12/10 10:06:05;;;;;;;4.32;2.25;;;9.50;79.70;;;;;;5025074;28;20513;-72
2020/12/10 10:08:33;;;;;;;2.47;2.28;;;9.50;79.60;;;;;;5025209;28;20068;-73
2020/12/10 10:10:59;;;;;;;4.13;2.40;;;9.60;79.80;;;;;;5024933;28;20041;-71
2020/12/10 10:13:25;;;;;;;3.17;2.10;;;9.60;79.80;;;;;;5026635;28;20408;-72
2020/12/10 10:15:53;;;;;;;3.28;1.98;;;9.60;79.80;;;;;;5025159;28;20476;-72
2020/12/10 10:18:19;;;;;;;3.03;2.40;;;9.60;79.80;;;;;;5024588;28;20060;-72
2020/12/10 10:20:47;;;;;;;3.80;1.98;;;9.60;79.80;;;;;;5022981;28;20481;-72
2020/12/10 10:23:13;;;;;;;2.72;1.80;;;9.70;79.90;;;;;;5026115;28;20129;-72
2020/12/10 10:25:42;;;;;;;2.90;2.30;;;9.70;79.90;;;;;;5024407;28;20037;-73
2020/12/10 10:28:09;;;;;;;3.60;2.50;;;9.70;80.00;;;;;;5008157;28;20069;-72
2020/12/10 10:30:35;;;;;;;2.67;2.30;;;9.80;80.30;;;;;;5026542;28;20492;-72
2020/12/10 10:33:01;;;;;;;3.65;2.13;;;9.90;80.50;;;;;;5025767;28;20037;-72
2020/12/10 10:35:27;;;;;;;3.15;2.50;;;9.90;80.50;;;;;;5025087;28;20033;-73
2020/12/10 10:37:54;;;;;;;6.68;2.60;;;10.00;80.60;;;;;;5026319;28;20111;-72
2020/12/10 10:40:20;;;;;;;4.90;2.60;;;10.10;80.80;;;;;;5025955;28;20037;-72
2020/12/10 10:42:54;;;;;;;3.70;2.40;;;10.10;80.70;;;;;;5026410;28;20025;-72
2020/12/10 10:45:20;;;;;;;3.50;2.03;;;10.20;80.90;;;;;;5026270;28;20033;-73
2020/12/10 10:47:55;;;;;;;;;;;10.30;81.00;;;;;;5026563;28;20497;-72
2020/12/10 10:50:47;;;;;;;7.03;2.67;;;10.40;81.00;;;;;;5026155;28;20011;-72
2020/12/10 10:53:13;;;;;;;3.00;2.45;;;10.50;81.40;;;;;;5007746;28;20452;-72
2020/12/10 10:55:38;;;;;;;3.58;2.22;;;10.60;80.90;;;;;;5026397;28;20037;-72
2020/12/10 10:58:04;;;;;;;4.57;2.30;;;10.60;80.90;;;;;;5025522;28;20037;-73
2020/12/10 11:00:39;;;;;;;4.13;2.63;;;10.60;80.80;;;;;;5025815;28;20034;-73
2020/12/10 11:03:04;;;;;;;6.57;3.15;;;10.60;80.70;;;;;;5026173;28;20052;-72
2020/12/10 11:05:30;;;;;;;3.63;2.03;;;10.60;80.70;;;;;;5024614;28;20596;-72
2020/12/10 11:07:59;;;;;;;3.72;2.40;;;10.60;80.70;;;;;;5026187;28;20041;-73
2020/12/10 11:10:29;;;;;;;4.30;2.72;;;10.60;80.60;;;;;;5027614;28;20030;-72
2020/12/10 11:12:54;;;;;;;2.88;2.30;;;10.60;80.60;;;;;;5027973;28;20532;-72
2020/12/10 11:15:20;;;;;;;4.85;2.85;;;10.60;80.60;;;;;;5012593;28;20033;-72
2020/12/10 11:17:46;;;;;;;4.07;3.03;;;10.60;80.60;;;;;;5028702;28;20057;-72
2020/12/10 11:20:12;;;;;;;5.22;2.28;;;10.60;80.60;;;;;;5028230;28;20025;-72
2020/12/10 11:22:39;;;;;;;5.30;2.95;;;10.60;80.80;;;;;;5029714;28;20038;-72
2020/12/10 11:25:06;;;;;;;3.28;2.97;;;10.60;80.50;;;;;;5029542;28;20045;-73
2020/12/10 11:27:32;;;;;;;6.85;2.40;;;10.70;80.70;;;;;;5028324;28;20152;-72
2020/12/10 11:29:58;;;;;;;6.03;3.42;;;10.60;80.50;;;;;;4992355;28;20486;-73
2020/12/10 11:32:24;;;;;;;4.95;3.50;;;10.60;80.50;;;;;;5000654;28;20044;-71
2020/12/10 11:34:54;;;;;;;4.07;2.72;;;10.60;80.50;;;;;;5028409;28;20029;-71
2020/12/10 11:37:20;;;;;;;6.47;2.72;;;10.60;80.50;;;;;;5011314;28;20037;-72
2020/12/10 11:39:50;;;;;;;8.20;2.90;;;10.50;80.30;;;;;;5028271;28;20033;-72
2020/12/10 11:42:16;;;;;;;2.65;2.45;;;10.60;80.50;;;;;;5027994;28;20036;-72
2020/12/10 11:44:42;;;;;;;4.20;2.80;;;10.60;80.50;;;;;;5028674;28;20034;-73
2020/12/10 11:47:10;;;;;;;4.40;2.70;;;10.50;80.40;;;;;;5028885;28;20053;-73
2020/12/10 11:49:38;;;;;;;3.58;2.45;;;10.60;80.50;;;;;;5029313;28;20442;-72
2020/12/10 11:52:06;;;;;;;4.55;2.38;;;10.60;80.50;;;;;;5028768;28;20029;-72
2020/12/10 11:54:33;;;;;;;3.15;2.20;;;10.60;80.50;;;;;;5027714;28;20044;-71
2020/12/10 11:56:59;;;;;;;4.72;2.55;;;10.60;80.50;;;;;;5025705;28;20029;-71
2020/12/10 11:59:25;;;;;;;3.33;2.67;;;10.60;80.50;;;;;;5011244;28;20133;-71
2020/12/10 12:02:09;;;;;;;2.50;2.30;;;10.60;80.40;;;;;;5028272;28;20452;-72
2020/12/10 12:04:44;;;;;;;3.58;2.45;;;10.70;80.50;;;;;;5027612;28;20480;-72
2020/12/10 12:07:10;;;;;;;4.72;2.17;;;10.70;80.50;;;;;;5028610;28;20044;-73
2020/12/10 12:09:36;;;;;;;6.97;2.67;;;10.70;80.50;;;;;;5027152;28;20046;-71
2020/12/10 12:12:03;;;;;;;4.20;2.38;;;10.60;80.30;;;;;;5027073;28;20369;-72
2020/12/10 12:14:31;;;;;;;4.78;2.80;;;10.70;80.40;;;;;;5028753;28;20125;-72
2020/12/10 12:16:57;;;;;;;3.70;2.90;;;10.70;80.40;;;;;;5011140;28;20152;-72
2020/12/10 12:19:23;;;;;;;3.03;2.42;;;10.70;80.30;;;;;;5030847;28;20236;-70
2020/12/10 12:21:50;;;;;;;2.92;2.38;;;10.70;80.30;;;;;;5029836;28;20029;-72
2020/12/10 12:24:16;;;;;;;2.38;2.17;;;10.70;80.20;;;;;;5027064;28;20034;-73
2020/12/10 12:26:47;;;;;;;2.67;2.20;;;10.80;80.40;;;;;;5027900;28;20033;-72
2020/12/10 12:29:13;;;;;;;4.00;2.25;;;10.70;80.20;;;;;;5010516;28;20061;-72
2020/12/10 12:31:58;;;;;;;3.72;1.90;;;10.80;80.40;;;;;;5027007;28;20172;-72
2020/12/10 12:34:24;;;;;;;3.88;2.40;;;10.80;80.40;;;;;;5028248;28;20049;-73
2020/12/10 12:37:10;;;;;;;3.00;2.63;;;10.80;80.40;;;;;;5025703;28;20095;-72
2020/12/10 12:39:44;;;;;;;4.65;2.67;;;10.90;80.50;;;;;;5028386;28;20257;-72
2020/12/10 12:42:35;;;;;;;5.93;3.00;;;10.90;80.50;;;;;;5026766;28;20037;-72
2020/12/10 12:45:06;;;;;;;4.20;2.75;;;10.90;80.50;;;;;;5028469;28;20048;-73
2020/12/10 12:47:53;;;;;;;3.38;2.60;;;11.00;80.50;;;;;;5026405;28;20527;-74
2020/12/10 12:50:22;;;;;;;4.07;2.20;;;11.00;80.50;;;;;;5026927;28;20029;-74
2020/12/10 12:52:49;;;;;;;3.95;2.70;;;11.00;80.50;;;;;;5026864;28;20034;-74
2020/12/10 12:55:14;;;;;;;3.67;2.90;;;11.10;80.60;;;;;;5027756;28;20038;-73
2020/12/10 12:57:40;;;;;;;2.90;2.05;;;11.00;80.30;;;;;;5026675;28;20456;-73
2020/12/10 13:00:07;;;;;;;3.60;2.45;;;11.00;80.30;;;;;;5027008;28;20037;-73
2020/12/10 13:02:35;;;;;;;5.28;2.50;;;11.10;80.50;;;;;;5027948;28;20036;-74
2020/12/10 13:05:02;;;;;;;3.58;2.80;;;11.10;80.40;;;;;;5025833;28;20273;-72